Time;durP1;ratioP1;P1;durP2;ratioP2;P2;SDS_P1;SDS_P2;PMS_P1;PMS_P2;Temp;Humidity;BMP_temperature;BMP_pressure;BME280_temperature;BME280_humidity;BME280_pressure;Samples;Min_cycle;Max_cycle;Signal;HPM_P1;HPM_P2
2023/05/14 00:00:11;;;;;;;6.10;2.47;;;;;;;14.45;48.48;94324.47;4984292;28;20029;-80
2023/05/14 00:02:36;;;;;;;5.75;2.63;;;;;;;14.49;48.31;94327.25;4984310;28;20061;-80
2023/05/14 00:05:02;;;;;;;5.95;2.55;;;;;;;14.48;48.44;94334.50;4984806;28;20022;-80
2023/05/14 00:07:29;;;;;;;5.78;2.22;;;;;;;14.49;48.76;94330.75;4967108;28;20026;-80
2023/05/14 00:09:56;;;;;;;6.28;2.40;;;;;;;14.53;48.73;94330.84;4984448;28;20241;-80
2023/05/14 00:12:21;;;;;;;6.55;2.35;;;;;;;14.55;48.70;94321.38;4984198;28;20046;-80
2023/05/14 00:14:47;;;;;;;4.78;2.50;;;;;;;14.58;48.51;94326.13;4984361;28;20262;-82
2023/05/14 00:17:12;;;;;;;7.45;2.25;;;;;;;14.60;49.02;94328.47;4967071;28;20046;-82
2023/05/14 00:19:40;;;;;;;4.07;2.38;;;;;;;14.66;49.29;94332.53;4967253;28;20027;-80
2023/05/14 00:22:09;;;;;;;6.43;2.50;;;;;;;14.70;49.40;94324.63;4984473;28;20260;-81
2023/05/14 00:24:35;;;;;;;4.63;2.10;;;;;;;14.62;48.42;94329.72;4984571;28;20090;-81
2023/05/14 00:27:01;;;;;;;6.00;2.25;;;;;;;14.62;47.72;94316.31;4984402;28;20045;-79
2023/05/14 00:29:26;;;;;;;4.43;2.42;;;;;;;14.59;47.90;94313.47;4983882;28;20321;-82
2023/05/14 00:31:51;;;;;;;4.78;1.92;;;;;;;14.57;47.75;94310.34;4983880;28;20221;-82
2023/05/14 00:34:17;;;;;;;6.85;2.47;;;;;;;14.55;47.99;94299.13;4984190;28;20022;-82
2023/05/14 00:36:42;;;;;;;4.43;2.65;;;;;;;14.59;48.31;94308.91;4983938;28;20034;-82
2023/05/14 00:39:08;;;;;;;6.07;2.30;;;;;;;14.57;48.44;94305.78;4966670;28;20077;-82
2023/05/14 00:41:33;;;;;;;6.50;2.50;;;;;;;14.54;48.47;94303.72;4984074;28;20022;-82
2023/05/14 00:43:59;;;;;;;8.45;2.30;;;;;;;14.56;47.94;94303.41;4983817;28;20015;-83
2023/05/14 00:46:25;;;;;;;4.57;2.28;;;;;;;14.49;48.55;94290.50;4983842;28;20235;-82
2023/05/14 00:48:50;;;;;;;4.50;2.38;;;;;;;14.46;48.32;94293.81;4983802;28;20033;-82
2023/05/14 00:51:17;;;;;;;5.53;2.58;;;;;;;14.40;48.37;94298.59;4983723;28;20089;-83
2023/05/14 00:53:44;;;;;;;8.10;2.33;;;;;;;14.32;48.45;94296.75;4983508;28;20073;-83
2023/05/14 00:56:09;;;;;;;4.28;1.83;;;;;;;14.31;48.32;94299.75;4983980;28;20030;-83
2023/05/14 00:58:35;;;;;;;5.75;2.40;;;;;;;14.31;48.47;94287.16;4983962;28;20090;-82
2023/05/14 01:01:01;;;;;;;6.70;2.45;;;;;;;14.25;48.68;94286.56;4983743;28;20056;-83
2023/05/14 01:03:26;;;;;;;8.90;2.70;;;;;;;14.23;48.88;94288.00;4984041;28;20309;-85
2023/05/14 01:06:14;;;;;;;3.97;2.30;;;;;;;14.15;49.08;94281.56;4983399;28;20030;-86
2023/05/14 01:08:58;;;;;;;6.13;2.60;;;;;;;14.14;49.20;94287.25;4984725;28;20217;-85
2023/05/14 01:11:39;;;;;;;5.43;2.30;;;;;;;14.11;49.42;94298.63;4967260;28;20023;-85
2023/05/14 01:14:29;;;;;;;3.72;2.13;;;;;;;14.09;49.80;94296.28;4983757;28;20031;-84
2023/05/14 01:16:57;;;;;;;8.20;2.67;;;;;;;14.10;49.88;94286.31;4983793;28;20319;-85
2023/05/14 01:19:36;;;;;;;7.05;2.17;;;;;;;14.09;50.08;94292.81;4983566;28;20030;-82
2023/05/14 01:22:02;;;;;;;6.40;3.08;;;;;;;14.05;50.30;94290.78;4983570;28;20022;-83
2023/05/14 01:24:27;;;;;;;8.35;4.55;;;;;;;14.02;50.59;94299.47;4983137;28;20034;-82
2023/05/14 01:27:06;;;;;;;7.68;2.35;;;;;;;14.03;50.65;94297.56;4966062;28;20050;-83
2023/05/14 01:29:35;;;;;;;6.53;2.70;;;;;;;13.98;50.38;94295.06;4983625;28;20018;-84
2023/05/14 01:32:05;;;;;;;4.15;2.58;;;;;;;13.94;50.50;94300.31;4983513;28;20098;-84
2023/05/14 01:34:31;;;;;;;3.90;2.10;;;;;;;13.88;50.36;94300.78;4983548;28;20027;-84
2023/05/14 01:36:57;;;;;;;3.53;1.95;;;;;;;13.92;50.54;94317.78;4983503;28;20307;-85
2023/05/14 01:39:25;;;;;;;4.90;2.35;;;;;;;13.91;50.86;94306.28;4966703;28;20033;-84
2023/05/14 01:41:51;;;;;;;4.25;2.00;;;;;;;13.88;50.94;94306.94;4986970;28;20086;-85
2023/05/14 01:44:17;;;;;;;5.63;1.90;;;;;;;13.93;50.99;94314.00;4986857;28;20054;-84
2023/05/14 01:46:43;;;;;;;5.75;2.15;;;;;;;13.89;51.03;94302.38;4986981;28;20027;-84
2023/05/14 01:49:08;;;;;;;6.35;2.20;;;;;;;13.86;51.30;94303.81;4987109;28;20317;-86
2023/05/14 01:51:34;;;;;;;10.20;2.25;;;;;;;13.82;51.19;94308.25;4987226;28;20025;-86
2023/05/14 01:53:59;;;;;;;4.50;1.98;;;;;;;13.79;51.51;94315.00;4969389;28;20043;-86
2023/05/14 01:56:25;;;;;;;12.65;2.10;;;;;;;13.75;52.09;94307.94;4987073;28;20030;-86
2023/05/14 01:58:50;;;;;;;8.07;2.45;;;;;;;13.73;53.34;94302.91;4986788;28;20142;-86
2023/05/14 02:01:15;;;;;;;4.20;2.38;;;;;;;13.71;53.84;94307.00;4986719;28;20317;-86
2023/05/14 02:03:41;;;;;;;7.25;1.77;;;;;;;13.63;54.47;94311.28;4986602;28;20276;-86
2023/05/14 02:06:07;;;;;;;4.00;2.25;;;;;;;13.56;54.89;94313.69;4986738;28;20073;-86
2023/05/14 02:08:32;;;;;;;4.65;1.95;;;;;;;13.49;54.97;94313.38;4969317;28;20023;-83
2023/05/14 02:10:57;;;;;;;6.15;2.25;;;;;;;13.48;55.67;94307.25;4986252;28;20026;-83
2023/05/14 02:13:25;;;;;;;5.82;2.17;;;;;;;13.37;55.81;94309.50;4969075;28;20050;-86
2023/05/14 02:15:50;;;;;;;5.50;2.53;;;;;;;13.35;55.80;94302.88;4986491;28;20026;-86
2023/05/14 02:18:16;;;;;;;5.50;2.17;;;;;;;13.27;55.97;94312.47;4986380;28;20030;-86
2023/05/14 02:20:41;;;;;;;5.75;2.10;;;;;;;13.25;55.64;94304.00;4986216;28;20034;-85
2023/05/14 02:23:07;;;;;;;8.07;2.60;;;;;;;13.23;55.90;94308.88;4986203;28;20090;-85
2023/05/14 02:25:32;;;;;;;5.38;2.08;;;;;;;13.18;55.78;94314.38;4985989;28;20137;-85
2023/05/14 02:27:58;;;;;;;3.33;1.90;;;;;;;13.11;55.97;94317.53;4985927;28;20033;-85
2023/05/14 02:30:23;;;;;;;4.55;1.92;;;;;;;13.07;55.96;94327.31;4968865;28;20277;-85
2023/05/14 02:32:49;;;;;;;6.55;2.15;;;;;;;13.10;55.82;94315.19;4985711;28;20042;-85
2023/05/14 02:35:15;;;;;;;5.00;2.10;;;;;;;13.08;55.92;94312.03;4986025;28;20125;-85
2023/05/14 02:37:40;;;;;;;3.83;2.22;;;;;;;13.05;56.01;94318.81;4986138;28;20093;-85
2023/05/14 02:40:06;;;;;;;5.60;1.85;;;;;;;13.04;55.66;94326.03;4969022;28;20269;-85
2023/05/14 02:42:32;;;;;;;3.80;1.98;;;;;;;13.03;55.61;94337.84;4986164;28;20339;-86
2023/05/14 02:44:57;;;;;;;5.93;2.28;;;;;;;12.97;56.01;94330.31;4985561;28;20018;-85
2023/05/14 02:47:23;;;;;;;3.70;2.25;;;;;;;12.97;55.90;94343.69;4984491;28;20015;-85
2023/05/14 02:49:48;;;;;;;4.38;1.98;;;;;;;12.94;55.85;94345.09;4968560;28;20022;-85
2023/05/14 02:52:14;;;;;;;3.40;1.98;;;;;;;12.98;55.64;94339.91;4967388;28;20205;-85
2023/05/14 02:54:39;;;;;;;6.63;2.28;;;;;;;12.96;55.42;94353.59;4985400;28;20042;-85
2023/05/14 02:57:05;;;;;;;6.70;2.55;;;;;;;12.96;55.75;94340.22;4985301;28;20110;-85
2023/05/14 02:59:30;;;;;;;3.97;2.22;;;;;;;12.94;55.58;94338.97;4985888;28;20023;-85
2023/05/14 03:01:56;;;;;;;4.53;2.10;;;;;;;12.91;56.05;94337.72;4985812;28;20014;-85
2023/05/14 03:04:22;;;;;;;4.70;1.95;;;;;;;12.88;56.23;94346.34;4985606;28;20023;-84
2023/05/14 03:06:47;;;;;;;3.70;1.90;;;;;;;12.81;55.88;94352.19;4968403;28;20022;-84
2023/05/14 03:09:13;;;;;;;4.22;2.42;;;;;;;12.73;56.59;94344.94;4968152;28;20065;-84
2023/05/14 03:11:38;;;;;;;3.53;2.08;;;;;;;12.67;57.09;94334.72;4985187;28;20030;-84
2023/05/14 03:14:04;;;;;;;5.07;2.40;;;;;;;12.65;57.63;94322.44;4968104;28;20040;-84
2023/05/14 03:16:29;;;;;;;5.68;2.00;;;;;;;12.65;57.95;94314.41;4985440;28;20023;-84
2023/05/14 03:18:55;;;;;;;3.45;2.10;;;;;;;12.64;58.42;94320.88;4967822;28;20031;-84
2023/05/14 03:21:20;;;;;;;11.65;2.80;;;;;;;12.64;58.70;94328.91;4984969;28;20061;-84
2023/05/14 03:23:46;;;;;;;4.75;2.30;;;;;;;12.63;59.86;94329.22;4983992;28;20070;-84
2023/05/14 03:26:11;;;;;;;4.00;1.98;;;;;;;12.59;61.08;94323.69;4985270;28;20026;-84
2023/05/14 03:28:37;;;;;;;4.22;2.70;;;;;;;12.58;62.13;94316.78;4967702;28;20022;-84
2023/05/14 03:31:02;;;;;;;6.10;2.45;;;;;;;12.55;62.67;94317.41;4985027;28;20265;-84
2023/05/14 03:33:28;;;;;;;7.40;2.33;;;;;;;12.44;63.20;94326.84;4984703;28;20033;-83
2023/05/14 03:35:53;;;;;;;5.88;2.38;;;;;;;12.38;64.08;94328.09;4985103;28;20023;-83
2023/05/14 03:38:19;;;;;;;6.28;2.30;;;;;;;12.36;63.80;94340.97;4984846;28;20023;-83
2023/05/14 03:40:45;;;;;;;4.57;2.63;;;;;;;12.33;64.24;94337.03;4984874;28;20035;-84
2023/05/14 03:43:10;;;;;;;5.53;2.70;;;;;;;12.32;64.47;94324.00;4984749;28;20094;-84
2023/05/14 03:45:36;;;;;;;6.78;2.72;;;;;;;12.36;64.33;94322.28;4984657;28;20029;-83
2023/05/14 03:48:02;;;;;;;5.50;2.17;;;;;;;12.34;64.54;94321.78;4984841;28;20257;-85
2023/05/14 03:50:27;;;;;;;3.10;2.20;;;;;;;12.34;64.92;94327.13;4984949;28;20081;-84
2023/05/14 03:52:53;;;;;;;7.03;2.50;;;;;;;12.34;64.87;94338.63;4984652;28;20101;-85
2023/05/14 03:55:19;;;;;;;4.32;2.22;;;;;;;12.34;64.66;94343.19;4984995;28;20101;-85
2023/05/14 03:57:46;;;;;;;13.75;3.00;;;;;;;12.32;64.83;94334.69;4985455;28;20262;-85
2023/05/14 04:00:12;;;;;;;4.18;2.58;;;;;;;12.32;64.52;94321.31;4985172;28;20069;-85
2023/05/14 04:02:37;;;;;;;8.00;2.45;;;;;;;12.38;64.14;94330.75;4984918;28;20023;-82
2023/05/14 04:05:03;;;;;;;4.57;2.33;;;;;;;12.37;63.96;94327.28;4985023;28;20031;-83
2023/05/14 04:07:29;;;;;;;5.43;2.47;;;;;;;12.34;63.71;94335.16;4984575;28;20022;-83
2023/05/14 04:09:54;;;;;;;6.97;3.33;;;;;;;12.28;63.91;94328.38;4984282;28;20054;-83
2023/05/14 04:12:20;;;;;;;7.22;2.58;;;;;;;12.27;64.01;94337.50;4984040;28;20089;-83
2023/05/14 04:14:45;;;;;;;9.85;2.42;;;;;;;12.23;63.64;94337.31;4984303;28;20340;-83
2023/05/14 04:17:11;;;;;;;7.07;3.08;;;;;;;12.24;64.04;94346.94;4984047;28;20030;-84
2023/05/14 04:19:36;;;;;;;6.05;2.95;;;;;;;12.20;63.97;94341.41;4984275;28;20023;-84
2023/05/14 04:22:01;;;;;;;7.57;3.63;;;;;;;12.16;64.14;94345.81;4984033;28;20026;-84
2023/05/14 04:24:27;;;;;;;13.88;3.85;;;;;;;12.17;63.33;94344.72;4984309;28;20029;-85
2023/05/14 04:26:52;;;;;;;6.85;3.33;;;;;;;12.14;63.46;94345.31;4984600;28;20038;-85
2023/05/14 04:29:18;;;;;;;6.53;2.95;;;;;;;12.14;63.31;94357.91;4984162;28;20131;-85
2023/05/14 04:31:43;;;;;;;7.65;3.10;;;;;;;12.18;63.52;94364.19;4966870;28;20026;-84
2023/05/14 04:34:09;;;;;;;9.60;3.28;;;;;;;12.21;63.40;94364.38;4984210;28;20050;-85
2023/05/14 04:36:34;;;;;;;5.10;2.90;;;;;;;12.29;63.84;94373.50;4984355;28;20019;-85
2023/05/14 04:39:00;;;;;;;5.28;2.80;;;;;;;12.31;64.15;94373.19;4984719;28;20050;-86
2023/05/14 04:41:25;;;;;;;6.63;3.20;;;;;;;12.33;65.48;94379.00;4985087;28;20026;-86
2023/05/14 04:43:54;;;;;;;4.68;2.97;;;;;;;12.31;66.11;94375.88;4984997;28;20026;-86
2023/05/14 04:46:20;;;;;;;6.70;3.22;;;;;;;12.28;66.02;94387.19;4985108;28;20094;-85
2023/05/14 04:48:45;;;;;;;8.50;3.33;;;;;;;12.28;67.22;94395.22;4984806;28;20019;-86
2023/05/14 04:51:11;;;;;;;7.45;3.72;;;;;;;12.28;66.45;94390.63;4967313;28;20054;-85
2023/05/14 04:53:36;;;;;;;8.43;3.97;;;;;;;12.31;66.12;94397.25;4983956;28;20046;-85
2023/05/14 04:56:02;;;;;;;7.10;3.45;;;;;;;12.30;66.91;94401.03;4984253;28;20030;-86
2023/05/14 04:58:28;;;;;;;7.05;3.55;;;;;;;12.27;67.46;94406.97;4984084;28;20026;-85
2023/05/14 05:00:53;;;;;;;8.18;3.90;;;;;;;12.33;68.19;94408.41;4984102;28;20101;-86
2023/05/14 05:03:19;;;;;;;7.15;4.50;;;;;;;12.35;68.19;94414.22;4983842;28;20014;-85
2023/05/14 05:05:44;;;;;;;5.68;3.28;;;;;;;12.37;69.12;94417.38;4983623;28;20023;-85
2023/05/14 05:08:10;;;;;;;7.30;3.65;;;;;;;12.42;70.44;94423.38;4984023;28;20026;-85
2023/05/14 05:10:35;;;;;;;5.60;3.17;;;;;;;12.41;68.59;94423.69;4966609;28;20109;-85
2023/05/14 05:13:01;;;;;;;6.03;3.25;;;;;;;12.34;68.33;94424.16;4966134;28;20031;-85
2023/05/14 05:15:26;;;;;;;9.05;3.72;;;;;;;12.35;70.48;94444.41;4986535;28;20069;-85
2023/05/14 05:17:52;;;;;;;12.15;4.07;;;;;;;12.36;70.63;94439.88;4988002;28;20449;-84
2023/05/14 05:20:17;;;;;;;6.28;3.38;;;;;;;12.35;70.10;94444.41;4988270;28;20022;-84
2023/05/14 05:22:43;;;;;;;10.00;4.05;;;;;;;12.33;70.27;94437.81;4987833;28;20019;-83
2023/05/14 05:25:08;;;;;;;10.52;3.65;;;;;;;12.34;70.61;94455.44;4987428;28;20372;-83
2023/05/14 05:27:34;;;;;;;6.13;3.67;;;;;;;12.36;71.06;94456.69;4988169;28;20223;-86
2023/05/14 05:30:17;;;;;;;8.02;3.03;;;;;;;12.37;71.19;94444.91;4988508;28;20273;-85
2023/05/14 05:32:43;;;;;;;5.82;3.03;;;;;;;12.36;70.37;94447.91;4988963;28;20023;-86
2023/05/14 05:35:08;;;;;;;7.25;3.40;;;;;;;12.38;70.73;94451.84;4988114;28;20265;-86
2023/05/14 05:37:34;;;;;;;9.07;3.60;;;;;;;12.40;72.09;94448.84;4987896;28;20026;-86
2023/05/14 05:39:59;;;;;;;9.15;3.40;;;;;;;12.43;72.07;94454.34;4989087;28;20134;-87
2023/05/14 05:42:25;;;;;;;9.98;3.75;;;;;;;12.45;72.59;94452.16;4988903;28;20027;-86
2023/05/14 05:44:50;;;;;;;5.90;3.95;;;;;;;12.45;73.13;94462.06;4987897;28;20025;-87
2023/05/14 05:47:16;;;;;;;7.88;3.95;;;;;;;12.43;73.49;94465.03;4970871;28;20023;-88
2023/05/14 05:49:41;;;;;;;9.32;3.60;;;;;;;12.48;73.46;94461.47;4987766;28;20022;-87
2023/05/14 05:52:07;;;;;;;10.00;3.90;;;;;;;12.49;72.88;94463.03;4987824;28;20015;-87
2023/05/14 05:54:33;;;;;;;10.13;4.45;;;;;;;12.51;73.48;94474.19;4987882;28;20054;-87
2023/05/14 05:56:58;;;;;;;9.82;4.13;;;;;;;12.51;73.68;94468.06;4988059;28;20022;-87
2023/05/14 05:59:24;;;;;;;9.80;4.15;;;;;;;12.54;74.23;94470.91;4988181;28;20380;-88
2023/05/14 06:01:49;;;;;;;11.13;4.65;;;;;;;12.52;74.81;94453.63;4987556;28;20038;-88
2023/05/14 06:04:15;;;;;;;8.65;4.85;;;;;;;12.51;74.75;94447.47;4987788;28;20031;-87
2023/05/14 06:06:41;;;;;;;11.93;5.18;;;;;;;12.50;74.32;94459.28;4987649;28;20066;-89
2023/05/14 06:09:07;;;;;;;14.02;5.28;;;;;;;12.50;74.28;94461.94;4987246;28;20065;-87
2023/05/14 06:11:33;;;;;;;8.48;5.32;;;;;;;12.48;74.28;94461.47;4987661;28;20027;-88
2023/05/14 06:13:59;;;;;;;9.13;4.47;;;;;;;12.44;74.11;94471.19;4988063;28;20038;-88
2023/05/14 06:16:24;;;;;;;6.30;3.97;;;;;;;12.43;73.97;94469.63;4987827;28;20433;-85
2023/05/14 06:18:51;;;;;;;11.90;4.30;;;;;;;12.39;74.02;94463.31;4987291;28;20050;-86
2023/05/14 06:21:17;;;;;;;14.63;5.25;;;;;;;12.40;73.93;94448.84;4986901;28;20030;-86
2023/05/14 06:23:43;;;;;;;9.18;4.88;;;;;;;12.36;73.51;94447.91;4969804;28;20050;-82
2023/05/14 06:26:08;;;;;;;12.82;5.85;;;;;;;12.22;73.36;94446.09;4986237;28;20031;-83
2023/05/14 06:28:34;;;;;;;11.68;4.55;;;;;;;12.18;72.59;94453.16;4969144;28;20062;-82
2023/05/14 06:30:59;;;;;;;10.68;4.30;;;;;;;12.03;72.53;94451.69;4986433;28;20321;-84
2023/05/14 06:33:29;;;;;;;10.32;4.32;;;;;;;11.89;72.81;94464.34;4986493;28;20034;-84
2023/05/14 06:35:59;;;;;;;11.38;4.50;;;;;;;11.79;73.27;94468.03;4986238;28;20026;-83
2023/05/14 06:38:25;;;;;;;12.65;4.53;;;;;;;11.70;73.68;94459.16;4986098;28;20028;-82
2023/05/14 06:40:52;;;;;;;11.85;4.47;;;;;;;11.62;74.23;94463.38;4985832;28;20221;-83
2023/05/14 06:43:17;;;;;;;10.52;5.05;;;;;;;11.60;74.86;94459.41;4986028;28;20025;-81
2023/05/14 06:45:43;;;;;;;9.48;4.38;;;;;;;11.55;74.95;94464.91;4986106;28;20085;-83
2023/05/14 06:48:09;;;;;;;8.13;4.40;;;;;;;11.51;74.80;94467.38;4986400;28;20324;-82
2023/05/14 06:50:34;;;;;;;8.70;4.60;;;;;;;11.47;74.95;94454.94;4986347;28;20042;-82
2023/05/14 06:53:00;;;;;;;15.35;4.95;;;;;;;11.50;75.26;94441.78;4986225;28;20050;-87
2023/05/14 06:55:26;;;;;;;10.82;4.35;;;;;;;11.49;75.33;94447.44;4987006;28;20191;-88
2023/05/14 06:57:51;;;;;;;11.75;5.35;;;;;;;11.48;75.86;94440.50;4987328;28;20037;-85
2023/05/14 07:00:17;;;;;;;12.82;4.13;;;;;;;11.53;76.22;94429.72;4986972;28;20026;-85
2023/05/14 07:02:42;;;;;;;15.15;4.15;;;;;;;11.60;76.31;94430.03;4986259;28;20131;-83
2023/05/14 07:05:09;;;;;;;11.20;4.78;;;;;;;11.61;75.53;94435.09;4986308;28;20050;-84
2023/05/14 07:07:35;;;;;;;7.43;4.45;;;;;;;11.72;76.46;94440.97;4968567;28;20025;-82
2023/05/14 07:10:00;;;;;;;7.95;3.92;;;;;;;11.77;76.66;94437.41;4986065;28;20029;-85
2023/05/14 07:12:26;;;;;;;6.03;3.70;;;;;;;11.84;75.84;94437.72;4986087;28;20058;-88
2023/05/14 07:14:51;;;;;;;11.32;4.10;;;;;;;11.92;75.11;94445.03;4986324;28;20022;-84
2023/05/14 07:17:17;;;;;;;12.27;7.63;;;;;;;11.94;74.17;94452.75;4985877;28;20225;-86
2023/05/14 07:19:42;;;;;;;14.95;5.18;;;;;;;11.92;73.67;94481.66;4968682;28;20023;-85
2023/05/14 07:22:08;;;;;;;6.78;4.20;;;;;;;11.87;73.49;94489.78;4985587;28;20014;-87
2023/05/14 07:24:33;;;;;;;12.07;4.18;;;;;;;11.83;74.11;94481.56;4968849;28;20094;-88
2023/05/14 07:27:00;;;;;;;9.02;4.90;;;;;;;11.82;73.90;94479.97;4986331;28;20329;-88
2023/05/14 07:29:26;;;;;;;7.47;3.95;;;;;;;11.84;73.43;94486.63;4985749;28;20111;-87
2023/05/14 07:31:51;;;;;;;6.82;4.28;;;;;;;11.83;73.84;94484.25;4985730;28;20365;-88
2023/05/14 07:34:17;;;;;;;10.90;4.18;;;;;;;11.82;74.11;94470.09;4968188;28;20154;-88
2023/05/14 07:36:43;;;;;;;7.65;4.28;;;;;;;11.83;73.98;94463.66;4968038;28;20022;-85
2023/05/14 07:39:08;;;;;;;7.15;4.07;;;;;;;11.82;73.77;94470.09;4985311;28;20035;-88
2023/05/14 07:41:33;;;;;;;8.63;4.40;;;;;;;11.87;73.85;94476.41;4986025;28;20022;-85
2023/05/14 07:43:59;;;;;;;7.30;3.70;;;;;;;11.84;73.84;94473.25;4986198;28;20089;-85
2023/05/14 07:46:24;;;;;;;7.55;3.50;;;;;;;11.88;73.97;94476.09;4985515;28;20232;-82
2023/05/14 07:48:50;;;;;;;9.25;3.92;;;;;;;11.85;73.89;94474.81;4985190;28;20027;-89
2023/05/14 07:51:15;;;;;;;13.95;5.20;;;;;;;11.87;73.91;94490.56;4967653;28;20069;-84
2023/05/14 07:53:41;;;;;;;7.80;4.20;;;;;;;11.87;73.90;94492.44;4984897;28;20043;-84
2023/05/14 07:56:07;;;;;;;9.23;4.43;;;;;;;11.87;74.21;94497.78;4986819;28;20046;-87
2023/05/14 07:58:33;;;;;;;18.48;4.82;;;;;;;11.88;74.57;94492.13;4968261;28;20204;-90
2023/05/14 08:01:00;;;;;;;9.65;4.78;;;;;;;11.87;74.36;94481.75;4985125;28;20034;-88
2023/05/14 08:03:25;;;;;;;12.00;4.53;;;;;;;11.89;74.77;94487.63;4985446;28;20093;-87
2023/05/14 08:05:51;;;;;;;10.95;5.00;;;;;;;11.88;74.72;94469.97;4984905;28;20025;-88
2023/05/14 08:08:16;;;;;;;8.18;4.25;;;;;;;11.91;74.50;94485.44;4985487;28;20046;-90
2023/05/14 08:10:42;;;;;;;8.27;4.43;;;;;;;11.90;74.58;94489.97;4968466;28;20042;-91
2023/05/14 08:13:07;;;;;;;10.55;4.65;;;;;;;11.91;75.21;94490.78;4985835;28;20253;-90
2023/05/14 08:15:33;;;;;;;9.02;4.72;;;;;;;11.93;75.01;94477.91;4968114;28;20023;-89
2023/05/14 08:18:02;;;;;;;10.63;4.63;;;;;;;12.00;74.96;94462.19;4967805;28;20033;-87
2023/05/14 08:20:31;;;;;;;13.60;5.55;;;;;;;12.08;74.98;94469.47;4984459;28;20030;-87
2023/05/14 08:23:00;;;;;;;8.15;4.43;;;;;;;12.12;75.23;94465.09;4967587;28;20090;-87
2023/05/14 08:25:25;;;;;;;6.03;3.95;;;;;;;12.20;75.18;94456.31;4967742;28;20360;-86
2023/05/14 08:27:52;;;;;;;9.73;4.82;;;;;;;12.30;74.71;94457.94;4967784;28;20033;-86
2023/05/14 08:30:18;;;;;;;8.95;4.32;;;;;;;12.40;74.47;94459.56;4967567;28;20027;-79
2023/05/14 08:32:44;;;;;;;15.48;4.40;;;;;;;12.44;73.68;94466.63;4983592;28;20070;-81
2023/05/14 08:35:09;;;;;;;8.85;3.78;;;;;;;12.49;73.19;94448.88;4984080;28;20033;-80
2023/05/14 08:37:37;;;;;;;10.95;4.07;;;;;;;12.56;73.48;94458.03;4966866;28;20360;-81
2023/05/14 08:40:03;;;;;;;10.15;3.80;;;;;;;12.60;72.96;94442.16;4984222;28;20019;-80
2023/05/14 08:42:30;;;;;;;8.70;4.78;;;;;;;12.68;73.59;94443.25;4984205;28;20042;-80
2023/05/14 08:45:08;;;;;;;9.35;4.60;;;;;;;12.66;72.65;94443.59;4983958;28;20236;-82
2023/05/14 08:47:34;;;;;;;14.38;5.95;;;;;;;12.62;73.26;94432.72;4984223;28;20034;-80
2023/05/14 08:50:03;;;;;;;8.23;4.07;;;;;;;12.61;73.51;94439.16;4985974;28;20019;-81
2023/05/14 08:52:29;;;;;;;12.38;4.25;;;;;;;12.55;72.78;94437.72;4987970;28;20022;-82
2023/05/14 08:54:56;;;;;;;11.93;4.50;;;;;;;12.46;73.52;94444.94;4988411;28;20328;-81
2023/05/14 08:57:23;;;;;;;7.78;4.50;;;;;;;12.42;73.29;94449.34;4987627;28;20089;-79
2023/05/14 08:59:50;;;;;;;10.90;4.82;;;;;;;12.35;73.50;94435.63;4988827;28;20309;-85
2023/05/14 09:02:19;;;;;;;12.93;4.15;;;;;;;12.27;73.16;94436.38;4987503;28;20019;-83
2023/05/14 09:04:46;;;;;;;9.85;3.75;;;;;;;12.16;73.41;94438.53;4988709;28;20026;-86
2023/05/14 09:07:12;;;;;;;8.20;4.10;;;;;;;12.10;73.02;94437.88;4988117;28;20041;-83
2023/05/14 09:09:40;;;;;;;9.75;3.90;;;;;;;12.10;73.82;94435.22;4988431;28;20023;-84
2023/05/14 09:12:06;;;;;;;6.90;3.88;;;;;;;12.04;73.76;94433.78;4988450;28;20029;-85
2023/05/14 09:14:32;;;;;;;8.50;4.70;;;;;;;12.07;74.42;94438.53;4970539;28;20034;-84
2023/05/14 09:16:58;;;;;;;11.18;5.03;;;;;;;12.07;75.02;94425.16;4988103;28;20048;-85
2023/05/14 09:19:24;;;;;;;6.93;3.95;;;;;;;12.12;74.16;94443.72;4988395;28;20022;-83
2023/05/14 09:21:50;;;;;;;6.55;3.55;;;;;;;12.08;73.80;94437.41;4987723;28;20030;-84
2023/05/14 09:24:20;;;;;;;6.50;4.07;;;;;;;12.14;74.37;94438.84;4987981;28;20077;-84
2023/05/14 09:26:50;;;;;;;8.13;3.85;;;;;;;12.25;74.53;94452.72;4988008;28;20023;-82
2023/05/14 09:29:15;;;;;;;11.52;5.03;;;;;;;12.26;74.45;94430.25;4987348;28;20046;-83
2023/05/14 09:31:41;;;;;;;7.88;3.47;;;;;;;12.25;74.50;94415.31;4987493;28;20198;-83
2023/05/14 09:34:09;;;;;;;7.93;4.00;;;;;;;12.29;74.13;94420.81;4987379;28;20031;-83
2023/05/14 09:36:35;;;;;;;7.55;3.53;;;;;;;12.26;73.37;94429.47;4969895;28;20030;-83
2023/05/14 09:39:05;;;;;;;6.13;3.50;;;;;;;12.23;73.48;94436.19;4987641;28;20030;-84
2023/05/14 09:41:31;;;;;;;8.93;3.47;;;;;;;12.22;73.75;94424.72;4970371;28;20248;-85
2023/05/14 09:43:57;;;;;;;6.00;3.45;;;;;;;12.15;73.76;94421.72;4987286;28;20023;-83
2023/05/14 09:46:22;;;;;;;6.80;3.47;;;;;;;12.14;74.67;94398.75;4987004;28;20062;-83
2023/05/14 09:48:48;;;;;;;7.38;4.15;;;;;;;12.16;74.02;94401.91;4987433;28;20038;-81
2023/05/14 09:51:16;;;;;;;7.20;4.00;;;;;;;12.15;74.71;94403.03;4986757;28;20050;-81
2023/05/14 09:53:43;;;;;;;7.20;3.97;;;;;;;12.13;74.72;94401.75;4986515;28;20101;-81
2023/05/14 09:56:09;;;;;;;6.28;4.07;;;;;;;12.17;74.25;94408.03;4969498;28;20050;-81
2023/05/14 09:58:34;;;;;;;6.47;3.75;;;;;;;12.13;74.35;94412.44;4986747;28;20215;-82
2023/05/14 10:01:00;;;;;;;7.10;3.25;;;;;;;12.17;74.14;94414.19;4986520;28;20023;-82
2023/05/14 10:03:28;;;;;;;6.93;3.47;;;;;;;12.12;73.71;94398.28;4986791;28;20021;-82
2023/05/14 10:05:57;;;;;;;5.53;3.58;;;;;;;12.10;73.96;94394.34;4986767;28;20018;-80
2023/05/14 10:08:36;;;;;;;6.88;3.67;;;;;;;12.11;74.59;94382.56;4986309;28;20022;-80
2023/05/14 10:11:12;;;;;;;6.30;3.60;;;;;;;12.08;74.85;94383.97;4986731;28;20074;-80
2023/05/14 10:13:40;;;;;;;8.65;3.60;;;;;;;12.04;74.60;94383.00;4986252;28;20035;-81
2023/05/14 10:16:27;;;;;;;6.53;3.80;;;;;;;12.06;75.14;94370.13;4985911;28;20289;-80
2023/05/14 10:18:59;;;;;;;8.48;3.97;;;;;;;12.03;74.98;94365.41;4985999;28;20046;-82
2023/05/14 10:21:28;;;;;;;5.72;3.80;;;;;;;12.01;75.37;94362.28;4986279;28;20073;-82
2023/05/14 10:23:54;;;;;;;7.45;3.63;;;;;;;11.91;75.27;94366.00;4986360;28;20061;-81
2023/05/14 10:26:20;;;;;;;6.53;4.18;;;;;;;11.90;75.67;94371.66;4986143;28;20023;-81
2023/05/14 10:28:46;;;;;;;5.20;3.00;;;;;;;11.84;74.93;94390.47;4985591;28;20018;-81
2023/05/14 10:31:12;;;;;;;5.80;3.38;;;;;;;11.83;75.25;94385.41;4986135;28;20030;-81
2023/05/14 10:33:49;;;;;;;6.68;3.00;;;;;;;11.78;75.08;94385.53;4986009;28;20018;-80
2023/05/14 10:36:16;;;;;;;4.80;3.22;;;;;;;11.76;75.70;94399.19;4985907;28;20027;-81
2023/05/14 10:38:42;;;;;;;6.65;3.30;;;;;;;11.67;76.06;94379.69;4985988;28;20142;-81
2023/05/14 10:41:13;;;;;;;6.80;3.40;;;;;;;11.73;76.73;94378.47;4986093;28;20026;-82
2023/05/14 10:43:40;;;;;;;5.35;3.22;;;;;;;11.79;77.48;94358.53;4986339;28;20023;-83
2023/05/14 10:46:07;;;;;;;8.82;3.47;;;;;;;11.83;76.49;94386.19;4985579;28;20045;-82
2023/05/14 10:48:34;;;;;;;8.40;4.07;;;;;;;11.89;77.18;94391.47;4987055;28;20034;-82
2023/05/14 10:51:03;;;;;;;7.03;3.78;;;;;;;11.96;77.35;94367.75;4986350;28;20045;-83
2023/05/14 10:53:36;;;;;;;8.27;3.88;;;;;;;12.09;77.14;94363.38;4985850;28;20270;-84
2023/05/14 10:56:20;;;;;;;9.73;4.78;;;;;;;12.24;77.13;94368.31;4986448;28;20228;-84
2023/05/14 10:58:48;;;;;;;8.88;5.07;;;;;;;12.36;76.75;94367.72;4986342;28;20309;-84
2023/05/14 11:01:14;;;;;;;11.15;4.95;;;;;;;12.50;76.29;94355.00;4985927;28;20029;-83
2023/05/14 11:03:44;;;;;;;7.60;4.63;;;;;;;12.66;75.37;94344.63;4985666;28;20122;-83
2023/05/14 11:06:12;;;;;;;8.05;3.65;;;;;;;12.79;75.28;94353.59;4985648;28;20089;-83
2023/05/14 11:08:38;;;;;;;5.38;3.25;;;;;;;12.93;74.53;94370.28;4985770;28;20073;-84
2023/05/14 11:11:05;;;;;;;5.78;3.58;;;;;;;12.95;73.09;94378.78;4986037;28;20081;-83
2023/05/14 11:13:33;;;;;;;5.38;3.00;;;;;;;12.90;73.49;94370.91;4984638;28;20026;-83
2023/05/14 11:15:59;;;;;;;6.78;3.92;;;;;;;12.95;73.21;94357.38;4985632;28;20269;-85
2023/05/14 11:18:29;;;;;;;7.65;3.40;;;;;;;13.01;72.62;94366.03;4985817;28;20407;-85
2023/05/14 11:20:59;;;;;;;3.67;2.35;;;;;;;12.95;72.35;94373.44;4985688;28;20065;-84
2023/05/14 11:23:25;;;;;;;5.72;3.10;;;;;;;12.93;72.51;94375.63;4985561;28;20047;-84
2023/05/14 11:25:52;;;;;;;12.13;3.30;;;;;;;12.97;72.98;94371.22;4985877;28;20061;-84
2023/05/14 11:28:19;;;;;;;5.40;2.97;;;;;;;13.00;73.10;94364.44;4985692;28;20273;-84